Time;durP1;ratioP1;P1;durP2;ratioP2;P2;SDS_P1;SDS_P2;PMS_P1;PMS_P2;Temp;Humidity;BMP_temperature;BMP_pressure;BME280_temperature;BME280_humidity;BME280_pressure;Samples;Min_cycle;Max_cycle;Signal;HPM_P1;HPM_P2
2022/06/08 00:00:20;;;;;;;4.70;2.45;;;;;;;16.90;60.87;93542.69;5103977;28;20206;-76
2022/06/08 00:02:51;;;;;;;5.38;2.70;;;;;;;16.85;61.09;93537.59;5103821;28;20019;-74
2022/06/08 00:05:18;;;;;;;4.38;2.63;;;;;;;16.80;61.39;93549.41;5103726;28;20020;-74
2022/06/08 00:07:43;;;;;;;7.93;3.08;;;;;;;16.75;61.30;93546.22;5103496;28;20187;-76
2022/06/08 00:10:09;;;;;;;4.15;2.75;;;;;;;16.74;60.91;93544.69;5103621;28;20035;-76
2022/06/08 00:12:35;;;;;;;4.55;2.42;;;;;;;16.68;61.04;93540.75;5103408;28;20035;-75
2022/06/08 00:15:02;;;;;;;4.40;2.45;;;;;;;16.60;61.36;93543.28;5103600;28;20044;-75
2022/06/08 00:17:27;;;;;;;6.82;2.58;;;;;;;16.59;61.59;93527.53;5103504;28;20031;-76
2022/06/08 00:19:54;;;;;;;6.68;2.80;;;;;;;16.57;61.15;93537.88;5103381;28;20082;-75
2022/06/08 00:22:20;;;;;;;3.85;2.63;;;;;;;16.48;61.30;93531.94;5103100;28;20027;-76
2022/06/08 00:24:46;;;;;;;7.15;2.90;;;;;;;16.41;61.47;93529.91;5103262;28;20028;-76
2022/06/08 00:27:12;;;;;;;8.23;2.90;;;;;;;16.30;61.90;93537.00;5103391;28;20024;-76
2022/06/08 00:29:37;;;;;;;5.72;2.45;;;;;;;16.24;61.97;93531.94;5103347;28;20039;-76
2022/06/08 00:32:03;;;;;;;9.00;2.90;;;;;;;16.18;62.23;93537.94;5103133;28;20087;-76
2022/06/08 00:34:29;;;;;;;4.78;2.67;;;;;;;16.11;62.86;93535.13;5102971;28;20024;-75
2022/06/08 00:36:54;;;;;;;6.32;2.97;;;;;;;16.07;63.27;93535.06;5103173;28;20064;-75
2022/06/08 00:39:20;;;;;;;4.57;2.85;;;;;;;16.05;63.14;93534.63;5103253;28;20023;-76
2022/06/08 00:41:53;;;;;;;6.53;2.50;;;;;;;16.05;63.48;93523.88;5103087;28;20031;-75
2022/06/08 00:44:33;;;;;;;7.63;2.90;;;;;;;16.04;63.97;93533.84;5102836;28;20092;-76
2022/06/08 00:47:00;;;;;;;9.95;3.00;;;;;;;16.02;64.11;93538.81;5102774;28;20371;-75
2022/06/08 00:49:31;;;;;;;4.93;3.30;;;;;;;15.97;64.08;93541.78;5101647;28;20031;-75
2022/06/08 00:51:59;;;;;;;5.82;2.83;;;;;;;15.94;63.52;93539.03;5102757;28;20023;-75
2022/06/08 00:54:33;;;;;;;8.75;2.67;;;;;;;15.89;63.70;93539.31;5102886;28;20044;-75
2022/06/08 00:57:14;;;;;;;5.07;2.47;;;;;;;15.90;63.69;93532.81;5102720;28;20085;-75
2022/06/08 00:59:47;;;;;;;6.30;2.67;;;;;;;15.93;63.65;93534.78;5103131;28;20275;-75
2022/06/08 01:02:13;;;;;;;4.57;2.90;;;;;;;15.94;63.83;93539.03;5102932;28;20032;-75
2022/06/08 01:04:38;;;;;;;16.73;4.40;;;;;;;15.98;63.64;93531.81;5103063;28;20096;-75
2022/06/08 01:07:04;;;;;;;5.10;3.00;;;;;;;16.03;64.15;93531.50;5102919;28;20020;-75
2022/06/08 01:09:38;;;;;;;6.80;2.88;;;;;;;16.03;63.90;93526.91;5102878;28;20091;-75
2022/06/08 01:12:12;;;;;;;6.00;2.60;;;;;;;16.05;64.24;93526.56;5102873;28;20032;-75
2022/06/08 01:14:38;;;;;;;5.90;2.88;;;;;;;16.08;64.66;93525.06;5102907;28;20262;-75
2022/06/08 01:17:15;;;;;;;5.43;3.47;;;;;;;16.07;64.43;93518.91;5102733;28;20044;-75
2022/06/08 01:19:44;;;;;;;5.93;2.80;;;;;;;16.06;63.80;93517.38;5102934;28;20099;-74
2022/06/08 01:22:12;;;;;;;7.28;3.08;;;;;;;15.98;63.75;93516.47;5102956;28;20023;-75
2022/06/08 01:24:39;;;;;;;5.05;2.90;;;;;;;15.91;63.91;93515.53;5102650;28;20195;-75
2022/06/08 01:27:24;;;;;;;6.30;2.60;;;;;;;15.84;64.13;93516.97;5102673;28;20107;-75
2022/06/08 01:30:12;;;;;;;7.25;2.95;;;;;;;15.82;64.12;93513.06;5102555;28;20028;-75
2022/06/08 01:32:57;;;;;;;3.75;2.38;;;;;;;15.79;63.85;93509.19;5102578;28;20016;-75
2022/06/08 01:36:02;;;;;;;3.17;2.45;;;;;;;15.73;64.19;93505.22;5102628;28;20016;-75
2022/06/08 01:38:46;;;;;;;6.15;2.72;;;;;;;15.69;64.36;93509.69;5102615;28;20203;-75
2022/06/08 01:41:36;;;;;;;5.03;2.80;;;;;;;15.64;64.75;93510.78;5102754;28;20379;-75
2022/06/08 01:44:39;;;;;;;5.97;2.70;;;;;;;15.59;64.96;93510.25;5102370;28;20032;-76
2022/06/08 01:47:13;;;;;;;;;;;;;;;15.51;65.40;93517.41;5102741;28;20016;-75
2022/06/08 01:49:57;;;;;;;5.80;2.72;;;;;;;15.43;65.52;93518.41;5102540;28;19904;-75
2022/06/08 01:52:46;;;;;;;4.40;2.80;;;;;;;15.38;65.50;93519.44;5102569;28;20126;-75
2022/06/08 01:55:23;;;;;;;5.88;2.92;;;;;;;15.25;66.27;93528.75;5102705;28;20050;-76
2022/06/08 01:58:17;;;;;;;6.88;2.83;;;;;;;15.25;66.17;93528.75;5102518;28;20077;-76
2022/06/08 02:01:04;;;;;;;4.40;2.60;;;;;;;15.23;66.22;93522.97;5102605;28;20024;-75
2022/06/08 02:03:50;;;;;;;5.68;3.00;;;;;;;15.23;66.03;93528.31;5103362;28;20078;-76
2022/06/08 02:06:24;;;;;;;4.03;2.53;;;;;;;15.22;65.70;93519.50;5106080;28;20086;-76
2022/06/08 02:09:06;;;;;;;10.23;2.83;;;;;;;15.23;66.26;93522.97;5106136;28;20020;-75
2022/06/08 02:11:53;;;;;;;5.75;3.28;;;;;;;15.25;66.42;93509.97;5106131;28;20100;-75
2022/06/08 02:14:26;;;;;;;7.78;2.88;;;;;;;15.30;66.59;93509.66;5105905;28;20230;-74
2022/06/08 02:16:52;;;;;;;;;;;;;;;15.37;66.10;93503.69;5106376;28;20023;-75
2022/06/08 02:19:41;;;;;;;7.30;3.00;;;;;;;15.40;66.67;93502.97;5105835;28;19910;-74
2022/06/08 02:22:16;;;;;;;8.80;2.85;;;;;;;15.44;66.64;93501.91;5106056;28;20016;-75
2022/06/08 02:24:47;;;;;;;4.68;2.90;;;;;;;15.46;66.58;93506.94;5105931;28;20036;-76
2022/06/08 02:27:16;;;;;;;6.13;2.85;;;;;;;15.47;66.62;93505.03;5105877;28;20039;-76
2022/06/08 02:29:55;;;;;;;5.63;2.92;;;;;;;15.49;66.46;93505.44;5105688;28;20311;-75
2022/06/08 02:35:21;;;;;;;5.18;3.22;;;;;;;15.49;66.68;93505.44;5105603;28;20113;-75
2022/06/08 02:37:52;;;;;;;3.80;2.63;;;;;;;15.49;65.77;93506.25;5105464;28;20094;-75
2022/06/08 02:40:27;;;;;;;7.00;2.70;;;;;;;15.52;65.85;93504.75;5105462;28;20153;-75
2022/06/08 02:43:00;;;;;;;4.45;2.67;;;;;;;15.47;66.01;93510.41;5105199;28;20024;-75
2022/06/08 02:45:31;;;;;;;7.13;2.65;;;;;;;15.48;66.33;93517.34;5105589;28;20332;-75
2022/06/08 02:48:01;;;;;;;5.97;2.47;;;;;;;15.44;66.64;93507.28;5105228;28;20051;-75
2022/06/08 02:50:28;;;;;;;6.90;2.58;;;;;;;15.44;66.51;93512.66;5105099;28;20024;-74
2022/06/08 02:53:25;;;;;;;4.70;2.67;;;;;;;15.40;66.19;93509.13;5105139;28;20016;-75
2022/06/08 02:56:13;;;;;;;4.57;2.72;;;;;;;15.36;66.17;93505.59;5104570;28;20023;-74
2022/06/08 02:58:46;;;;;;;10.68;4.50;;;;;;;15.36;66.63;93512.88;5105032;28;20030;-74
2022/06/08 03:01:28;;;;;;;14.18;3.28;;;;;;;15.36;67.24;93508.25;5105117;28;20353;-74
2022/06/08 03:03:59;;;;;;;14.43;3.38;;;;;;;15.37;66.96;93520.56;5105060;28;20043;-74
2022/06/08 03:06:40;;;;;;;11.90;3.22;;;;;;;15.34;66.88;93523.94;5104993;28;20105;-74
2022/06/08 03:09:10;;;;;;;7.38;3.40;;;;;;;15.29;67.04;93531.53;5104617;28;20106;-75
2022/06/08 03:11:41;;;;;;;6.05;3.30;;;;;;;15.24;67.13;93535.22;5104782;28;20376;-74
2022/06/08 03:14:10;;;;;;;8.95;3.38;;;;;;;15.20;66.98;93543.22;5104542;28;20475;-75
2022/06/08 03:17:01;;;;;;;5.35;3.20;;;;;;;15.09;66.80;93544.88;5104748;28;20024;-74
2022/06/08 03:19:30;;;;;;;3.97;2.90;;;;;;;14.91;67.16;93541.00;5104491;28;20222;-74
2022/06/08 03:21:56;;;;;;;11.38;3.42;;;;;;;14.83;68.02;93540.06;5104695;28;20247;-74
2022/06/08 03:24:23;;;;;;;18.55;4.07;;;;;;;14.82;68.75;93533.91;5104611;28;20020;-74
2022/06/08 03:26:53;;;;;;;9.20;4.47;;;;;;;14.83;69.33;93540.06;5104552;28;20024;-73
2022/06/08 03:29:19;;;;;;;13.32;4.88;;;;;;;14.83;69.38;93542.75;5104537;28;20046;-73
2022/06/08 03:31:44;;;;;;;5.90;3.78;;;;;;;14.88;69.61;93537.13;5104502;28;20217;-74
2022/06/08 03:34:10;;;;;;;5.65;3.78;;;;;;;14.99;69.57;93532.78;5104430;28;20040;-74
2022/06/08 03:36:35;;;;;;;17.38;4.72;;;;;;;15.13;69.28;93542.28;5104652;28;20101;-74
2022/06/08 03:39:01;;;;;;;8.65;4.88;;;;;;;15.19;68.50;93546.25;5104339;28;20043;-75
2022/06/08 03:41:27;;;;;;;5.38;4.13;;;;;;;15.24;68.29;93540.59;5104382;28;20409;-75
2022/06/08 03:43:53;;;;;;;10.07;4.05;;;;;;;15.27;68.38;93542.59;5104101;28;20361;-75
2022/06/08 03:46:19;;;;;;;12.48;4.07;;;;;;;15.30;68.04;93539.22;5104057;28;20023;-75
2022/06/08 03:48:45;;;;;;;9.80;4.07;;;;;;;15.38;68.28;93543.59;5104229;28;20028;-76
2022/06/08 03:51:15;;;;;;;6.40;4.22;;;;;;;15.50;68.08;93547.31;5104097;28;20069;-75
2022/06/08 03:53:54;;;;;;;10.35;4.30;;;;;;;15.57;67.38;93539.38;5103806;28;20030;-75
2022/06/08 03:56:21;;;;;;;10.57;5.03;;;;;;;15.65;67.55;93535.72;5104060;28;20333;-75
2022/06/08 03:58:47;;;;;;;7.43;4.10;;;;;;;15.78;67.43;93531.81;5103999;28;20028;-75
2022/06/08 04:01:13;;;;;;;9.02;5.18;;;;;;;15.92;66.99;93533.22;5103851;28;20100;-76
2022/06/08 04:03:38;;;;;;;8.23;5.18;;;;;;;16.08;66.43;93523.19;5103876;28;20027;-74
2022/06/08 04:06:04;;;;;;;6.40;4.38;;;;;;;16.17;66.46;93534.47;5103673;28;20027;-74
2022/06/08 04:08:31;;;;;;;11.45;4.72;;;;;;;16.30;65.38;93532.38;5103683;28;20218;-74
2022/06/08 04:10:58;;;;;;;6.80;4.30;;;;;;;16.39;65.24;93537.56;5103605;28;20044;-74
2022/06/08 04:13:23;;;;;;;18.63;5.18;;;;;;;16.45;64.48;93530.75;5103339;28;20027;-73
2022/06/08 04:15:49;;;;;;;9.32;5.88;;;;;;;16.54;64.92;93530.50;5103613;28;20016;-73
2022/06/08 04:18:20;;;;;;;8.40;4.68;;;;;;;16.56;64.83;93528.25;5103688;28;20013;-74
2022/06/08 04:20:48;;;;;;;12.20;5.10;;;;;;;16.59;65.51;93525.63;5103676;28;20031;-74
2022/06/08 04:23:16;;;;;;;8.93;4.53;;;;;;;16.62;65.01;93532.97;5103416;28;20318;-74
2022/06/08 04:25:42;;;;;;;10.13;4.63;;;;;;;16.62;64.55;93516.03;5102669;28;20027;-74
2022/06/08 04:28:08;;;;;;;12.05;5.00;;;;;;;16.63;64.41;93529.16;5103116;28;20077;-74
2022/06/08 04:30:34;;;;;;;9.18;5.35;;;;;;;16.69;63.88;93524.25;5103329;28;20047;-75
2022/06/08 04:33:00;;;;;;;10.75;5.32;;;;;;;16.75;64.41;93509.34;5103209;28;20019;-75
2022/06/08 04:35:26;;;;;;;11.32;5.05;;;;;;;16.80;64.86;93510.97;5103243;28;20031;-74
2022/06/08 04:37:53;;;;;;;11.90;5.22;;;;;;;16.82;65.49;93508.72;5103267;28;20024;-75
2022/06/08 04:40:18;;;;;;;15.95;5.47;;;;;;;16.91;64.48;93517.28;5103346;28;20257;-74
2022/06/08 04:42:44;;;;;;;16.02;5.60;;;;;;;16.90;64.59;93521.13;5103067;28;20024;-74
2022/06/08 04:45:10;;;;;;;13.02;5.88;;;;;;;16.84;63.97;93515.28;5103197;28;20226;-75
2022/06/08 04:47:36;;;;;;;12.10;5.47;;;;;;;16.88;64.22;93518.03;5102912;28;20028;-75
2022/06/08 04:50:02;;;;;;;16.02;5.22;;;;;;;16.86;64.08;93520.31;5102983;28;20024;-74
2022/06/08 04:52:27;;;;;;;7.68;5.10;;;;;;;16.87;64.14;93521.84;5102980;28;20024;-74
2022/06/08 04:54:53;;;;;;;11.68;5.22;;;;;;;16.84;64.48;93517.97;5102764;28;20349;-75
2022/06/08 04:57:18;;;;;;;16.63;6.82;;;;;;;16.87;64.87;93519.16;5103082;28;20016;-74
2022/06/08 04:59:44;;;;;;;27.05;7.32;;;;;;;16.94;64.83;93521.19;5102905;28;20041;-74
2022/06/08 05:02:10;;;;;;;10.13;6.07;;;;;;;16.96;64.65;93529.69;5102948;28;20111;-75
2022/06/08 05:04:36;;;;;;;20.02;6.28;;;;;;;17.00;64.14;93534.00;5102679;28;20027;-76
2022/06/08 05:07:02;;;;;;;11.10;5.80;;;;;;;16.98;64.15;93527.41;5102793;28;20024;-76
2022/06/08 05:09:28;;;;;;;9.95;5.72;;;;;;;16.96;64.80;93521.63;5102694;28;20095;-76
2022/06/08 05:11:53;;;;;;;10.93;7.00;;;;;;;16.95;63.84;93520.06;5102675;28;20024;-81
2022/06/08 05:14:19;;;;;;;11.93;7.28;;;;;;;17.02;65.14;93514.78;5102742;28;20029;-72
2022/06/08 05:16:44;;;;;;;8.35;5.75;;;;;;;17.01;64.41;93522.06;5102676;28;20051;-72
2022/06/08 05:19:10;;;;;;;10.80;6.05;;;;;;;17.12;64.64;93527.63;5102924;28;20031;-72
2022/06/08 05:21:36;;;;;;;13.05;6.28;;;;;;;17.22;64.20;93531.63;5102787;28;20020;-72
2022/06/08 05:24:02;;;;;;;15.85;7.72;;;;;;;17.37;63.97;93527.97;5102579;28;20065;-73
2022/06/08 05:26:27;;;;;;;17.15;6.90;;;;;;;17.54;63.43;93537.44;5102573;28;20024;-73
2022/06/08 05:28:52;;;;;;;15.73;6.82;;;;;;;17.71;64.75;93535.34;5102544;28;20032;-72
2022/06/08 05:31:18;;;;;;;18.77;6.85;;;;;;;17.89;64.53;93533.69;5102641;28;20030;-73
2022/06/08 05:33:44;;;;;;;19.80;6.50;;;;;;;18.10;64.20;93533.16;5102481;28;20077;-74
2022/06/08 05:36:09;;;;;;;9.43;5.72;;;;;;;18.25;61.39;93537.56;5102484;28;20369;-74
2022/06/08 05:38:35;;;;;;;18.48;7.35;;;;;;;18.34;60.73;93539.97;5105748;28;20016;-74
2022/06/08 05:41:01;;;;;;;19.67;5.88;;;;;;;18.49;60.65;93542.81;5106561;28;20029;-74
2022/06/08 05:43:26;;;;;;;17.98;6.72;;;;;;;18.58;59.07;93538.69;5106257;28;20040;-76
2022/06/08 05:45:52;;;;;;;11.60;6.15;;;;;;;18.61;58.30;93539.84;5106408;28;20374;-74
2022/06/08 05:48:18;;;;;;;13.55;6.20;;;;;;;18.65;59.75;93541.44;5106329;28;20034;-75
2022/06/08 05:50:44;;;;;;;12.82;5.65;;;;;;;18.73;59.29;93546.91;5106285;28;20043;-75
2022/06/08 05:53:10;;;;;;;9.90;6.88;;;;;;;18.88;57.34;93534.34;5106125;28;20303;-74
2022/06/08 05:55:36;;;;;;;11.77;5.07;;;;;;;18.99;57.34;93541.38;5106135;28;20304;-73
2022/06/08 05:58:02;;;;;;;11.90;5.70;;;;;;;19.04;57.46;93532.16;5106089;28;20073;-75
2022/06/08 06:00:34;;;;;;;14.32;5.65;;;;;;;19.05;57.74;93531.00;5106060;28;20213;-73
2022/06/08 06:02:59;;;;;;;;;;;;;;;19.12;57.65;93535.69;5106472;28;20024;-73
2022/06/08 06:05:31;;;;;;;16.77;6.20;;;;;;;19.22;56.78;93533.06;5105987;28;20210;-73
2022/06/08 06:07:57;;;;;;;11.10;5.28;;;;;;;19.35;56.09;93538.16;5105871;28;20039;-75
2022/06/08 06:10:23;;;;;;;11.02;5.35;;;;;;;19.39;55.66;93537.00;5105741;28;20214;-74
2022/06/08 06:12:48;;;;;;;8.60;4.88;;;;;;;19.48;55.01;93533.19;5106094;28;20032;-74
2022/06/08 06:15:15;;;;;;;8.90;5.15;;;;;;;19.53;54.88;93536.34;5105650;28;20089;-76
2022/06/08 06:17:40;;;;;;;15.23;5.57;;;;;;;19.69;54.87;93527.94;5105849;28;20028;-79
2022/06/08 06:20:07;;;;;;;12.00;5.30;;;;;;;19.79;53.98;93531.88;5105718;28;20038;-83
2022/06/08 06:22:50;;;;;;;8.90;4.72;;;;;;;19.84;52.72;93521.47;5105668;28;20372;-79
2022/06/08 06:25:16;;;;;;;11.70;4.80;;;;;;;19.90;53.38;93524.56;5103142;28;20039;-76
2022/06/08 06:27:41;;;;;;;10.32;4.80;;;;;;;19.97;52.93;93518.44;5104391;28;20047;-79
2022/06/08 06:30:08;;;;;;;13.10;5.18;;;;;;;19.99;52.22;93510.72;5105485;28;20310;-79
2022/06/08 06:32:35;;;;;;;9.73;4.20;;;;;;;20.04;52.21;93516.50;5105203;28;20024;-79
2022/06/08 06:35:02;;;;;;;11.10;4.85;;;;;;;20.12;51.46;93513.84;5105479;28;20089;-80
2022/06/08 06:37:29;;;;;;;11.77;4.53;;;;;;;20.19;51.81;93511.94;5105382;28;20020;-78
2022/06/08 06:39:55;;;;;;;9.65;3.88;;;;;;;20.16;51.79;93515.38;5105438;28;20044;-79
2022/06/08 06:42:24;;;;;;;15.57;4.57;;;;;;;20.18;51.51;93506.91;5105620;28;20256;-79
2022/06/08 06:44:51;;;;;;;7.55;4.22;;;;;;;20.10;51.68;93508.81;5105299;28;20119;-80
2022/06/08 06:47:17;;;;;;;9.65;4.90;;;;;;;20.07;52.55;93506.06;5105261;28;20074;-78
2022/06/08 06:49:42;;;;;;;7.57;4.30;;;;;;;20.11;52.63;93499.53;5104506;28;20032;-79
2022/06/08 06:52:12;;;;;;;8.73;4.80;;;;;;;20.15;51.65;93500.31;5105134;28;20020;-79
2022/06/08 06:54:38;;;;;;;8.85;3.05;;;;;;;20.25;51.07;93498.78;5105025;28;20028;-79
2022/06/08 06:57:04;;;;;;;8.75;3.60;;;;;;;20.36;50.38;93493.41;5104991;28;20024;-77
2022/06/08 06:59:30;;;;;;;6.80;2.58;;;;;;;20.39;48.22;93498.06;5105086;28;20314;-79
2022/06/08 07:01:56;;;;;;;7.03;3.20;;;;;;;20.40;47.79;93494.19;5086989;28;20044;-78
2022/06/08 07:04:21;;;;;;;7.25;2.35;;;;;;;20.36;47.34;93493.41;5086930;28;20024;-79
2022/06/08 07:06:47;;;;;;;5.22;2.28;;;;;;;20.35;46.21;93491.84;5087009;28;20031;-79
2022/06/08 07:09:12;;;;;;;5.45;2.20;;;;;;;20.43;46.54;93485.28;5104985;28;20043;-78
2022/06/08 07:11:40;;;;;;;9.25;2.78;;;;;;;20.51;47.30;93491.50;5104879;28;20032;-78
2022/06/08 07:14:08;;;;;;;5.38;2.72;;;;;;;20.58;47.05;93499.66;5104975;28;20055;-77
2022/06/08 07:16:34;;;;;;;7.22;2.63;;;;;;;20.62;46.42;93497.75;5104826;28;20089;-78
2022/06/08 07:19:00;;;;;;;7.43;2.60;;;;;;;20.66;46.09;93500.44;5104746;28;20298;-77
2022/06/08 07:21:26;;;;;;;7.75;2.78;;;;;;;20.83;45.94;93497.75;5104893;28;20035;-77
2022/06/08 07:23:52;;;;;;;7.55;2.67;;;;;;;20.98;45.41;93505.88;5105070;28;20031;-77
2022/06/08 07:26:18;;;;;;;8.80;2.78;;;;;;;21.06;45.90;93502.00;5104638;28;20027;-77
2022/06/08 07:28:43;;;;;;;9.48;2.90;;;;;;;21.15;45.87;93504.34;5104681;28;20377;-77
2022/06/08 07:31:12;;;;;;;10.75;2.83;;;;;;;21.30;44.94;93511.25;5104548;28;20016;-77
2022/06/08 07:33:39;;;;;;;7.18;2.60;;;;;;;21.46;45.13;93510.88;5104332;28;20405;-77
2022/06/08 07:36:05;;;;;;;10.05;2.90;;;;;;;21.54;44.47;93509.72;5104308;28;20038;-76
2022/06/08 07:38:30;;;;;;;4.53;2.33;;;;;;;21.36;43.88;93514.38;5104206;28;20012;-76
2022/06/08 07:40:56;;;;;;;9.45;2.97;;;;;;;21.35;43.83;93508.16;5104188;28;20019;-78
2022/06/08 07:43:22;;;;;;;6.93;2.35;;;;;;;21.36;43.74;93509.72;5104346;28;20238;-80
2022/06/08 07:45:48;;;;;;;14.65;3.40;;;;;;;21.35;43.92;93507.38;5104426;28;20115;-81
2022/06/08 07:50:58;;;;;;;8.38;3.30;;;;;;;21.30;44.82;93515.91;5104311;28;20054;-80
2022/06/08 07:53:23;;;;;;;18.05;3.63;;;;;;;21.29;45.64;93523.28;5085960;28;20119;-80
2022/06/08 07:55:49;;;;;;;8.85;3.17;;;;;;;21.44;45.04;93515.94;5104222;28;20065;-79
2022/06/08 07:58:15;;;;;;;15.73;3.78;;;;;;;21.62;45.77;93513.19;5103853;28;20065;-79
2022/06/08 08:00:47;;;;;;;5.57;3.70;;;;;;;21.79;45.46;93517.75;5103086;28;20024;-79
2022/06/08 08:03:16;;;;;;;14.15;4.15;;;;;;;21.94;45.38;93513.09;5103803;28;20087;-78
2022/06/08 08:05:43;;;;;;;9.80;3.47;;;;;;;22.06;44.72;93516.50;5103937;28;20045;-79
2022/06/08 08:08:10;;;;;;;10.23;3.42;;;;;;;22.09;43.82;93513.78;5103844;28;20149;-79
2022/06/08 08:10:35;;;;;;;8.15;3.15;;;;;;;22.13;44.17;93511.84;5103974;28;20106;-79
2022/06/08 08:13:01;;;;;;;7.55;3.50;;;;;;;22.29;44.64;93503.25;5103463;28;20023;-87
2022/06/08 08:15:27;;;;;;;9.30;3.30;;;;;;;22.40;43.70;93503.19;5103421;28;20099;-84
2022/06/08 08:17:53;;;;;;;11.65;3.58;;;;;;;22.55;43.94;93498.44;5103487;28;20024;-81
2022/06/08 08:20:19;;;;;;;9.95;3.55;;;;;;;22.63;43.69;93492.59;5103491;28;20273;-81
2022/06/08 08:22:46;;;;;;;8.27;3.50;;;;;;;22.75;43.41;93490.53;5103368;28;20020;-80
2022/06/08 08:25:13;;;;;;;10.38;3.75;;;;;;;22.76;42.14;93481.25;5103008;28;20020;-80
2022/06/08 08:27:38;;;;;;;8.13;3.03;;;;;;;22.71;43.00;93487.84;5102808;28;20085;-83
2022/06/08 08:30:05;;;;;;;13.45;3.13;;;;;;;22.76;43.26;93487.44;5102979;28;20028;-82
2022/06/08 08:32:30;;;;;;;16.08;3.50;;;;;;;22.76;42.69;93482.00;5103233;28;20024;-80
2022/06/08 08:34:55;;;;;;;11.30;3.40;;;;;;;22.84;42.52;93486.22;5103108;28;20040;-80
2022/06/08 08:37:21;;;;;;;16.35;3.83;;;;;;;22.91;42.09;93482.66;5103031;28;20015;-81
2022/06/08 08:39:46;;;;;;;10.88;3.70;;;;;;;22.93;42.07;93480.31;5102960;28;20020;-79
2022/06/08 08:42:20;;;;;;;9.77;4.10;;;;;;;22.94;41.81;93472.91;5102818;28;20031;-81
2022/06/08 08:45:15;;;;;;;12.80;4.05;;;;;;;22.83;41.80;93475.72;5102794;28;20044;-80
2022/06/08 08:48:07;;;;;;;10.38;3.85;;;;;;;22.65;41.70;93475.88;5102772;28;20349;-80
2022/06/08 08:50:40;;;;;;;7.50;3.75;;;;;;;22.60;42.21;93468.91;5102829;28;20052;-79
2022/06/08 08:53:19;;;;;;;6.43;3.10;;;;;;;22.56;41.55;93479.03;5102760;28;20066;-80
2022/06/08 08:55:48;;;;;;;11.23;4.05;;;;;;;22.38;42.08;93478.38;5102838;28;20095;-77
2022/06/08 08:58:18;;;;;;;8.05;3.90;;;;;;;22.48;41.97;93474.81;5102739;28;20028;-79
2022/06/08 09:00:57;;;;;;;13.48;3.25;;;;;;;22.45;42.53;93462.06;5102711;28;20043;-79
2022/06/08 09:03:34;;;;;;;7.13;3.03;;;;;;;22.43;41.66;93472.53;5102992;28;20028;-79
2022/06/08 09:06:08;;;;;;;10.85;3.30;;;;;;;22.44;40.63;93460.50;5102601;28;20305;-79
2022/06/08 09:08:34;;;;;;;10.30;3.78;;;;;;;22.48;40.65;93461.25;5102433;28;20024;-78
2022/06/08 09:11:01;;;;;;;8.18;2.80;;;;;;;22.59;41.75;93453.00;5102552;28;20145;-88
2022/06/08 09:13:51;;;;;;;7.63;2.67;;;;;;;22.76;41.62;93464.94;5109116;28;20090;-89
2022/06/08 09:16:35;;;;;;;6.40;3.50;;;;;;;22.86;38.99;93450.50;5104179;28;20038;-86
2022/06/08 09:19:21;;;;;;;13.40;3.03;;;;;;;22.93;39.33;93442.28;5109576;28;20065;-87
2022/06/08 09:21:52;;;;;;;4.97;2.50;;;;;;;22.99;39.22;93454.25;5109194;28;20125;-83
2022/06/08 09:24:38;;;;;;;8.60;3.70;;;;;;;23.07;38.12;93451.50;5109234;28;20048;-88
2022/06/08 09:27:38;;;;;;;4.95;2.85;;;;;;;23.14;39.48;93451.44;5109370;28;20020;-87
2022/06/08 09:30:19;;;;;;;12.40;2.40;;;;;;;23.22;37.45;93445.53;5109169;28;20051;-87
2022/06/08 09:32:51;;;;;;;8.20;3.22;;;;;;;23.30;39.74;93450.91;5109477;28;20218;-87
2022/06/08 09:35:36;;;;;;;10.57;3.50;;;;;;;23.48;39.59;93442.56;5109039;28;20307;-87
2022/06/08 09:38:11;;;;;;;9.20;3.53;;;;;;;23.56;38.41;93442.06;5109219;28;20069;-86
2022/06/08 09:40:58;;;;;;;11.27;4.13;;;;;;;23.62;38.81;93447.84;5109162;28;20024;-87
2022/06/08 09:43:23;;;;;;;5.95;2.40;;;;;;;23.69;37.42;93436.88;5109084;28;20326;-85
2022/06/08 09:45:54;;;;;;;11.77;3.20;;;;;;;23.63;37.20;93428.41;5108898;28;20027;-87
2022/06/08 09:51:54;;;;;;;9.00;2.50;;;;;;;23.50;37.07;93427.38;5108909;28;20031;-86
2022/06/08 09:54:44;;;;;;;14.18;2.00;;;;;;;23.59;37.20;93424.16;5108985;28;20027;-89
2022/06/08 09:57:12;;;;;;;7.00;2.13;;;;;;;23.63;37.11;93425.69;5108978;28;20020;-90
2022/06/08 10:00:19;;;;;;;6.22;1.90;;;;;;;23.90;36.93;93419.53;5108929;28;20066;-88
2022/06/08 10:03:12;;;;;;;5.00;2.53;;;;;;;24.19;36.59;93408.25;5063744;28;20040;-85
2022/06/08 10:05:43;;;;;;;7.30;2.30;;;;;;;24.36;34.24;93414.63;5108494;28;20028;-84
2022/06/08 10:08:09;;;;;;;6.85;2.35;;;;;;;24.37;35.99;93408.00;5108692;28;20255;-85
2022/06/08 10:10:58;;;;;;;10.48;1.83;;;;;;;24.52;36.05;93409.34;5108579;28;20034;-81
2022/06/08 10:13:36;;;;;;;8.07;1.90;;;;;;;24.69;34.78;93402.09;5070219;28;20067;-83
2022/06/08 10:16:11;;;;;;;5.03;1.88;;;;;;;24.78;33.82;93398.84;5108733;28;20024;-81
2022/06/08 10:18:43;;;;;;;4.65;1.92;;;;;;;24.76;34.47;93401.97;5108515;28;20061;-81
2022/06/08 10:21:23;;;;;;;6.55;2.97;;;;;;;24.75;32.40;93405.09;5108789;28;20308;-79
2022/06/08 10:23:53;;;;;;;10.95;2.08;;;;;;;24.66;33.58;93402.16;5106384;28;20115;-81
2022/06/08 10:26:35;;;;;;;6.72;2.33;;;;;;;24.65;34.34;93411.50;5105179;28;20032;-80
2022/06/08 10:29:10;;;;;;;;;;;;;;;24.75;35.71;93399.66;5105617;28;20077;-80
2022/06/08 10:31:47;;;;;;;6.22;1.65;;;;;;;24.98;34.91;93396.94;5087011;28;19903;-79
2022/06/08 10:34:34;;;;;;;3.80;1.80;;;;;;;25.23;34.13;93395.75;5105080;28;20363;-80
2022/06/08 10:37:35;;;;;;;4.07;2.10;;;;;;;25.49;33.43;93390.59;5105085;28;20343;-74
2022/06/08 10:40:07;;;;;;;14.63;2.37;;;;;;;25.54;33.36;93392.81;5104985;28;20024;-78
2022/06/08 10:42:41;;;;;;;3.87;2.10;;;;;;;25.63;33.19;93388.34;5104484;28;20024;-75
2022/06/08 10:45:34;;;;;;;3.60;2.08;;;;;;;25.81;32.51;93389.94;5104696;28;20604;-74
2022/06/08 10:48:13;;;;;;;7.88;1.45;;;;;;;25.71;32.21;93385.47;5103624;28;20134;-74
2022/06/08 10:50:43;;;;;;;8.25;1.48;;;;;;;25.63;32.82;93384.84;5103298;28;20027;-74
2022/06/08 10:56:34;;;;;;;2.72;1.70;;;;;;;25.60;33.78;93383.75;5103549;28;20018;-74
2022/06/08 10:59:03;;;;;;;7.38;1.65;;;;;;;25.71;32.97;93394.44;5103393;28;20310;-75
2022/06/08 11:01:57;;;;;;;3.58;1.55;;;;;;;25.86;31.74;93386.72;5085209;28;20076;-75
2022/06/08 11:04:31;;;;;;;3.50;1.70;;;;;;;25.99;31.60;93389.59;5104351;28;20084;-74
2022/06/08 11:07:05;;;;;;;3.08;1.85;;;;;;;25.98;32.19;93388.06;5104622;28;20024;-74
2022/06/08 11:09:34;;;;;;;5.10;1.70;;;;;;;26.16;30.61;93382.22;5104200;28;20100;-74
2022/06/08 11:12:04;;;;;;;5.63;1.90;;;;;;;26.02;30.34;93380.56;5104623;28;20047;-75
2022/06/08 11:14:57;;;;;;;6.22;1.88;;;;;;;25.74;32.62;93370.97;5104607;28;20035;-75
2022/06/08 11:17:31;;;;;;;;;;;;;;;25.95;32.94;93372.50;5105308;28;20039;-76
2022/06/08 11:20:01;;;;;;;4.07;2.30;;;;;;;26.14;31.43;93374.44;5104779;28;19904;-74
2022/06/08 11:22:32;;;;;;;5.63;2.10;;;;;;;26.40;31.83;93369.94;5104517;28;20091;-74
2022/06/08 11:25:03;;;;;;;7.45;2.58;;;;;;;26.61;30.56;93368.69;5104519;28;20024;-74
2022/06/08 11:27:35;;;;;;;7.80;2.05;;;;;;;26.64;31.81;93369.78;5104322;28;20032;-74
2022/06/08 11:30:26;;;;;;;7.57;2.00;;;;;;;26.64;31.25;93350.66;5104432;28;20035;-74
2022/06/08 11:32:51;;;;;;;3.38;1.95;;;;;;;26.92;31.21;93348.41;5104219;28;20024;-74
2022/06/08 11:35:46;;;;;;;6.03;2.13;;;;;;;27.05;30.49;93345.72;5104096;28;20108;-74
2022/06/08 11:38:18;;;;;;;4.22;2.17;;;;;;;27.34;30.43;93341.06;5104145;28;20141;-74
2022/06/08 11:40:44;;;;;;;11.90;2.60;;;;;;;27.55;29.58;93347.16;5103997;28;20099;-74
2022/06/08 11:43:13;;;;;;;11.93;2.25;;;;;;;27.79;29.85;93331.22;5104020;28;20039;-74
2022/06/08 11:45:40;;;;;;;4.45;1.83;;;;;;;27.99;29.84;93336.53;5103984;28;20369;-75
2022/06/08 11:48:13;;;;;;;4.38;2.05;;;;;;;28.16;29.71;93328.97;5103702;28;20028;-75
2022/06/08 11:50:49;;;;;;;8.30;2.63;;;;;;;28.35;29.02;93336.19;5103711;28;20027;-75
2022/06/08 11:53:18;;;;;;;8.00;2.00;;;;;;;28.42;28.85;93335.19;5103738;28;20219;-75
2022/06/08 11:55:56;;;;;;;10.65;2.17;;;;;;;28.54;28.96;93322.72;5103855;28;20028;-75
2022/06/08 11:58:27;;;;;;;7.70;2.00;;;;;;;28.46;27.91;93311.19;5103731;28;20016;-75
2022/06/08 12:01:00;;;;;;;7.00;2.33;;;;;;;28.55;28.19;93311.28;5103922;28;20251;-75
2022/06/08 12:03:44;;;;;;;3.78;1.73;;;;;;;28.77;27.70;93308.59;5103988;28;20023;-75